Time;durP1;ratioP1;P1;durP2;ratioP2;P2;SDS_P1;SDS_P2;PMS_P1;PMS_P2;Temp;Humidity;BMP_temperature;BMP_pressure;BME280_temperature;BME280_humidity;BME280_pressure;Samples;Min_cycle;Max_cycle;Signal;HPM_P1;HPM_P2
2021/12/28 00:12:28;;;;;;;9.43;8.57;;;;;;;8.51;78.33;94259.38;5070852;28;20208;-64
2021/12/28 00:22:47;;;;;;;;;;;;;;;;;;;;;
2021/12/28 00:30:08;;;;;;;11.35;10.25;;;;;;;8.55;78.14;94271.25;5061265;28;20197;-64
2021/12/28 00:36:59;;;;;;;14.02;12.63;;;;;;;8.53;78.20;94270.81;5004020;28;20201;-64
2021/12/28 00:40:07;;;;;;;13.10;11.85;;;;;;;8.49;78.16;94269.94;5070106;28;20221;-64
2021/12/28 00:46:17;;;;;;;10.30;9.35;;;;;;;8.57;77.97;94263.44;4994449;28;20211;-65
2021/12/28 00:52:38;;;;;;;10.52;9.55;;;;;;;8.53;77.89;94268.06;5071061;28;20656;-65
2021/12/28 00:59:50;;;;;;;11.48;10.38;;;;;;;8.53;77.83;94268.06;5016538;28;20225;-65
2021/12/28 01:03:05;;;;;;;;;;;;;;;;;;;;;
2021/12/28 01:06:05;;;;;;;11.13;10.13;;;;;;;8.49;77.75;94272.69;5051299;28;20209;-65
2021/12/28 01:13:04;;;;;;;12.18;10.95;;;;;;;8.43;78.53;94267.47;5066087;28;20193;-65
2021/12/28 01:16:32;;;;;;;12.45;11.30;;;;;;;8.39;78.02;94268.56;5074177;28;20193;-65
2021/12/28 01:19:55;;;;;;;10.93;9.93;;;;;;;8.34;77.88;94274.28;5013434;28;20344;-65
2021/12/28 01:22:57;;;;;;;11.15;10.15;;;;;;;8.35;78.55;94276.69;5029405;28;20243;-64
2021/12/28 01:50:23;;;;;;;15.65;14.05;;;;;;;8.45;78.43;94280.84;5031590;28;20213;-65
2021/12/28 01:54:13;;;;;;;13.45;12.15;;;;;;;8.54;77.60;94267.72;4966101;28;20326;-65
2021/12/28 01:57:08;;;;;;;12.65;11.45;;;;;;;8.53;77.66;94274.34;5072932;28;20527;-65
2021/12/28 02:12:41;;;;;;;12.05;11.05;;;;;;;8.46;78.46;94265.16;5015259;28;20642;-65
2021/12/28 02:15:58;;;;;;;11.90;10.70;;;;;;;8.43;78.41;94269.44;5047090;28;20209;-65
2021/12/28 02:26:35;;;;;;;11.45;10.35;;;;;;;8.40;78.45;94259.16;5016711;28;20397;-64
2021/12/28 02:32:52;;;;;;;14.88;13.38;;;;;;;8.41;78.74;94261.53;5013508;28;20218;-64
2021/12/28 02:44:07;;;;;;;12.63;11.32;;;;;;;8.36;78.47;94253.53;5063204;28;20197;-64
2021/12/28 02:47:32;;;;;;;;;;;;;;;;;;;;;
2021/12/28 03:03:37;;;;;;;13.07;11.73;;;;;;;8.44;77.79;94265.53;5076615;28;20236;-65
2021/12/28 03:06:59;;;;;;;13.50;12.10;;;;;;;8.40;78.02;94268.19;5065529;28;20672;-65
2021/12/28 03:10:28;;;;;;;14.23;12.80;;;;;;;8.38;78.40;94264.19;5075889;28;20201;-65
2021/12/28 03:16:52;;;;;;;;;;;;;;;;;;;;;
2021/12/28 03:34:18;;;;;;;13.02;11.73;;;;;;;8.26;79.18;94262.34;5038223;28;20321;-65
2021/12/28 03:38:01;;;;;;;13.13;11.93;;;;;;;8.26;78.85;94262.34;5075790;28;20260;-65
2021/12/28 03:44:58;;;;;;;12.32;11.23;;;;;;;8.35;78.89;94260.19;5061792;28;20225;-65
2021/12/28 03:48:52;;;;;;;11.43;10.25;;;;;;;8.40;78.67;94259.94;4946505;28;20218;-64
2021/12/28 03:52:02;;;;;;;12.32;11.13;;;;;;;8.39;78.45;94260.31;5072883;28;20209;-64
2021/12/28 03:55:24;;;;;;;;;;;;;;;;;;;;;
2021/12/28 04:01:33;;;;;;;12.40;11.20;;;;;;;8.33;78.39;94264.47;5061621;28;20229;-65
2021/12/28 04:15:32;;;;;;;12.57;11.38;;;;;;;8.15;79.29;94270.34;5075841;28;20211;-65
2021/12/28 04:23:06;;;;;;;12.73;11.63;;;;;;;8.18;78.75;94279.81;5075648;28;20189;-65
2021/12/28 04:26:39;;;;;;;;;;;;;;;;;;;;;
2021/12/28 04:33:25;;;;;;;13.60;12.30;;;;;;;8.18;79.29;94280.59;5075311;28;20245;-65
2021/12/28 04:36:32;;;;;;;16.50;14.93;;;;;;;8.09;79.20;94279.19;5060074;28;20231;-65
2021/12/28 04:42:55;;;;;;;15.70;14.18;;;;;;;8.06;79.21;94285.41;5074763;28;20220;-65
2021/12/28 04:46:04;;;;;;;16.45;14.75;;;;;;;8.02;79.38;94284.50;5068733;28;20657;-65
2021/12/28 04:56:23;;;;;;;17.70;15.80;;;;;;;8.04;79.48;94277.53;5057530;28;20640;-66
2021/12/28 04:59:53;;;;;;;16.90;15.40;;;;;;;8.06;79.37;94277.16;5071700;28;20208;-63
2021/12/28 05:09:37;;;;;;;18.20;15.90;;;;;;;7.96;79.22;94279.31;5000484;28;20204;-66
2021/12/28 05:16:13;;;;;;;13.23;11.93;;;;;;;7.93;79.68;94282.75;5058918;28;20209;-63
2021/12/28 05:33:01;;;;;;;16.85;15.25;;;;;;;7.92;78.91;94291.34;4977187;28;20294;-64
2021/12/28 05:36:43;;;;;;;16.38;14.88;;;;;;;7.91;79.20;94297.97;5071725;28;20205;-64
2021/12/28 05:43:09;;;;;;;18.05;16.23;;;;;;;7.91;79.11;94292.50;5025736;28;20676;-64
2021/12/28 05:46:14;;;;;;;14.63;13.32;;;;;;;7.93;79.09;94298.44;5075909;28;20259;-64
2021/12/28 06:03:59;;;;;;;18.60;16.88;;;;;;;7.86;79.39;94304.53;4999889;28;20203;-65
2021/12/28 06:15:01;;;;;;;19.30;17.60;;;;;;;7.75;78.21;94303.47;4918091;29;20240;-66
2021/12/28 06:18:51;;;;;;;19.38;17.58;;;;;;;7.74;78.82;94312.06;4881994;29;20611;-65
2021/12/28 06:25:23;;;;;;;25.88;23.38;;;;;;;7.70;78.52;94301.81;4883881;29;20231;-65
2021/12/28 06:28:44;;;;;;;;;;;;;;;;;;;;;
2021/12/28 06:31:59;;;;;;;34.95;31.30;;;;;;;7.52;77.82;94311.53;5015098;28;20222;-65
2021/12/28 06:38:17;;;;;;;35.25;32.00;;;;;;;7.49;78.64;94317.72;5016550;28;20233;-65
2021/12/28 06:41:42;;;;;;;34.42;31.00;;;;;;;7.53;78.24;94309.56;5025162;28;20233;-65
2021/12/28 06:44:42;;;;;;;28.15;25.65;;;;;;;7.57;78.38;94315.94;5075856;28;20209;-65
2021/12/28 06:50:51;;;;;;;21.92;19.88;;;;;;;7.68;78.31;94331.53;5068388;28;20206;-65
2021/12/28 06:54:09;;;;;;;;;;;;;;;;;;;;;
2021/12/28 07:00:46;;;;;;;28.15;25.40;;;;;;;7.71;78.66;94332.78;5077243;28;20173;-65
2021/12/28 07:17:04;;;;;;;22.85;20.73;;;;;;;7.87;78.63;94343.78;5073836;28;20201;-65
2021/12/28 07:20:04;;;;;;;22.42;20.33;;;;;;;7.92;78.89;94344.31;5015362;28;20290;-65
2021/12/28 07:26:13;;;;;;;22.67;20.58;;;;;;;7.98;79.04;94339.34;5076977;28;20197;-65
2021/12/28 07:29:27;;;;;;;23.25;21.15;;;;;;;7.95;79.26;94343.63;5068346;28;20554;-65
2021/12/28 07:32:18;;;;;;;24.50;22.30;;;;;;;7.97;79.40;94337.75;5054563;28;20220;-65
2021/12/28 07:35:14;;;;;;;25.02;22.60;;;;;;;8.00;79.49;94350.00;5076689;28;20268;-65
2021/12/28 07:38:14;;;;;;;34.90;31.63;;;;;;;8.05;79.14;94350.50;5076430;28;20213;-65
2021/12/28 07:41:07;;;;;;;44.90;40.67;;;;;;;8.06;79.34;94356.81;4958623;28;20220;-65
2021/12/28 07:47:18;;;;;;;;;;;;;;;;;;;;;
2021/12/28 07:50:51;;;;;;;;;;;;;;;;;;;;;
2021/12/28 07:58:14;;;;;;;54.08;49.00;;;;;;;8.45;78.95;94335.81;5024640;28;20211;-65
2021/12/28 08:01:21;;;;;;;55.97;50.75;;;;;;;8.53;78.37;94345.81;5035674;28;20214;-65
2021/12/28 08:04:13;;;;;;;43.20;39.20;;;;;;;8.58;78.53;94342.00;5033738;28;20234;-65
2021/12/28 08:07:45;;;;;;;31.98;29.08;;;;;;;8.62;78.40;94346.41;5035692;28;20237;-65
2021/12/28 08:13:57;;;;;;;36.35;33.03;;;;;;;8.76;78.79;94351.44;4997814;28;20215;-65
2021/12/28 08:16:43;;;;;;;37.90;34.10;;;;;;;8.85;78.46;94345.75;5002284;28;20206;-65
2021/12/28 08:23:16;;;;;;;29.42;26.48;;;;;;;8.97;78.37;94353.88;5028660;28;20206;-65
2021/12/28 08:29:43;;;;;;;;;;;;;;;;;;;;;
2021/12/28 08:32:48;;;;;;;40.50;36.75;;;;;;;9.29;76.92;94345.47;5034263;28;20292;-65
2021/12/28 08:36:03;;;;;;;39.53;35.63;;;;;;;9.47;77.17;94343.09;5034654;28;20301;-65
2021/12/28 08:38:53;;;;;;;38.47;34.78;;;;;;;9.71;76.66;94345.53;5019945;28;20632;-65
2021/12/28 08:45:02;;;;;;;25.27;23.08;;;;;;;9.99;76.07;94344.47;5016836;28;20663;-65
2021/12/28 08:48:31;;;;;;;18.48;16.67;;;;;;;9.99;74.48;94348.03;5075494;28;20189;-65
2021/12/28 08:58:07;;;;;;;15.80;14.35;;;;;;;9.80;74.45;94328.75;5011498;28;20353;-65
2021/12/28 09:04:28;;;;;;;13.65;12.55;;;;;;;9.83;74.88;94322.53;4997231;28;20682;-65
2021/12/28 09:07:51;;;;;;;;;;;;;;;;;;;;;
2021/12/28 09:16:41;;;;;;;12.27;11.20;;;;;;;10.50;72.49;94317.38;5176538;22;20316;-62
2021/12/28 09:19:08;;;;;;;12.02;10.93;;;;;;;10.61;72.96;94323.06;5034836;28;20198;-62
2021/12/28 09:21:35;;;;;;;17.52;15.73;;;;;;;10.73;72.13;94322.06;5036587;28;20221;-63
2021/12/28 09:24:02;;;;;;;10.48;9.57;;;;;;;10.71;70.39;94321.63;5039564;28;20273;-64
2021/12/28 09:26:29;;;;;;;9.32;8.45;;;;;;;10.80;71.09;94316.63;5039196;28;20187;-63
2021/12/28 09:28:56;;;;;;;9.70;8.80;;;;;;;10.89;70.49;94319.91;5021751;28;20202;-61
2021/12/28 09:31:22;;;;;;;9.18;8.38;;;;;;;10.91;70.47;94314.03;5021388;28;20190;-61
2021/12/28 09:33:51;;;;;;;8.98;8.18;;;;;;;10.93;69.74;94314.44;5039401;28;20186;-63
2021/12/28 09:36:18;;;;;;;8.73;8.02;;;;;;;10.98;69.81;94303.88;5039218;28;20186;-63
2021/12/28 09:38:46;;;;;;;8.70;7.93;;;;;;;11.13;70.00;94317.88;5039012;28;20197;-61
2021/12/28 09:41:13;;;;;;;9.10;8.20;;;;;;;11.24;69.34;94305.78;5021552;28;20210;-63
2021/12/28 09:43:40;;;;;;;10.93;9.93;;;;;;;11.43;69.37;94304.81;5038916;28;20186;-63
2021/12/28 09:46:07;;;;;;;12.88;11.65;;;;;;;11.61;69.28;94307.78;5038921;28;20193;-63
2021/12/28 09:48:35;;;;;;;13.20;12.13;;;;;;;11.72;67.15;94292.13;5021692;28;20226;-64
2021/12/28 09:51:03;;;;;;;14.00;12.70;;;;;;;11.73;67.85;94295.69;5038718;28;20182;-63
2021/12/28 09:53:30;;;;;;;15.07;13.48;;;;;;;11.71;67.89;94307.13;5039236;28;20186;-63
2021/12/28 09:55:57;;;;;;;13.23;11.93;;;;;;;11.68;67.72;94298.78;5038813;28;20178;-63
2021/12/28 09:58:24;;;;;;;12.00;10.80;;;;;;;11.71;68.11;94304.34;5038595;28;20183;-62
2021/12/28 10:00:51;;;;;;;13.82;12.70;;;;;;;11.79;68.56;94305.22;5038515;28;20217;-63
2021/12/28 10:03:18;;;;;;;15.10;13.80;;;;;;;11.88;67.87;94302.19;5021517;28;20197;-62
2021/12/28 10:05:45;;;;;;;17.17;15.35;;;;;;;11.90;67.58;94292.34;5038059;28;20309;-62
2021/12/28 10:08:14;;;;;;;17.45;15.82;;;;;;;11.95;67.08;94299.50;5038168;28;20191;-63
2021/12/28 10:10:43;;;;;;;18.98;17.38;;;;;;;11.92;66.62;94297.50;5038224;28;20198;-62
2021/12/28 10:13:12;;;;;;;19.23;17.52;;;;;;;11.98;66.31;94290.44;5020808;28;20222;-64
2021/12/28 10:15:40;;;;;;;19.95;18.02;;;;;;;12.06;67.20;94291.31;5016922;28;20569;-63
2021/12/28 10:18:10;;;;;;;19.92;18.33;;;;;;;12.11;65.60;94293.72;5018131;28;20203;-63
2021/12/28 10:20:39;;;;;;;24.13;21.92;;;;;;;11.89;65.32;94287.19;5018577;28;20179;-63
2021/12/28 10:23:10;;;;;;;23.80;21.70;;;;;;;11.78;66.06;94287.84;5017433;28;20207;-63
2021/12/28 10:25:39;;;;;;;22.00;20.10;;;;;;;11.74;66.74;94287.03;5017379;28;20649;-63
2021/12/28 10:28:09;;;;;;;20.13;18.42;;;;;;;11.68;67.27;94285.78;5017764;28;20207;-62
2021/12/28 10:30:41;;;;;;;20.83;18.92;;;;;;;11.66;67.28;94288.13;5017418;28;20210;-63
2021/12/28 10:33:09;;;;;;;21.20;19.35;;;;;;;11.62;67.21;94279.00;5017287;28;20539;-64
2021/12/28 10:35:40;;;;;;;18.42;16.83;;;;;;;11.43;66.43;94287.47;5017315;28;20546;-63
2021/12/28 10:38:09;;;;;;;16.13;14.73;;;;;;;11.40;67.37;94275.22;5017804;28;20199;-63
2021/12/28 10:40:41;;;;;;;17.60;16.00;;;;;;;11.42;67.26;94281.16;5017441;28;20213;-63
2021/12/28 10:43:10;;;;;;;19.10;17.45;;;;;;;11.51;67.29;94283.59;5018125;28;20199;-63
2021/12/28 10:45:40;;;;;;;20.08;18.33;;;;;;;11.45;67.28;94282.38;5017975;28;20202;-63
2021/12/28 10:48:10;;;;;;;18.50;16.80;;;;;;;11.41;67.77;94287.84;5018090;28;20482;-63
2021/12/28 10:50:40;;;;;;;16.90;15.27;;;;;;;11.41;67.87;94284.31;5017106;28;20199;-64
2021/12/28 10:53:13;;;;;;;16.15;14.73;;;;;;;11.44;67.96;94283.56;5016768;28;20298;-63
2021/12/28 10:55:43;;;;;;;15.75;14.45;;;;;;;11.49;67.28;94281.22;5017851;28;20710;-63
2021/12/28 10:58:12;;;;;;;17.55;16.02;;;;;;;11.54;67.36;94277.34;5017179;28;20285;-66
2021/12/28 11:00:41;;;;;;;18.40;16.52;;;;;;;11.60;67.81;94278.59;5016506;28;20195;-63
2021/12/28 11:03:20;;;;;;;21.23;19.38;;;;;;;11.68;67.04;94271.16;5017335;28;20195;-63
2021/12/28 11:05:49;;;;;;;20.58;18.67;;;;;;;11.70;66.92;94263.31;5017855;28;20175;-63
2021/12/28 11:08:16;;;;;;;19.63;18.02;;;;;;;11.74;66.78;94266.91;5017809;28;20183;-63
2021/12/28 11:10:47;;;;;;;16.27;14.95;;;;;;;11.79;66.32;94266.53;5017483;28;20167;-63
2021/12/28 11:13:14;;;;;;;16.35;15.00;;;;;;;11.86;66.06;94263.09;5017215;28;20172;-63
2021/12/28 11:15:44;;;;;;;15.85;14.55;;;;;;;11.97;66.03;94266.75;5026903;28;20227;-63
2021/12/28 11:18:19;;;;;;;17.15;15.60;;;;;;;12.13;65.31;94259.00;5019617;28;20190;-63
2021/12/28 11:20:47;;;;;;;17.02;15.60;;;;;;;12.33;65.02;94256.78;5037056;28;20190;-63
2021/12/28 11:23:18;;;;;;;15.60;14.20;;;;;;;12.55;64.94;94262.44;5037170;28;20202;-63
2021/12/28 11:25:46;;;;;;;15.65;14.35;;;;;;;12.75;63.90;94252.72;5036756;28;20594;-63
2021/12/28 11:28:16;;;;;;;16.52;15.07;;;;;;;12.91;62.32;94250.41;5019955;28;20206;-63
2021/12/28 11:31:01;;;;;;;15.13;13.82;;;;;;;13.17;61.77;94251.31;5036951;28;20224;-63
2021/12/28 11:33:42;;;;;;;15.93;14.57;;;;;;;13.49;61.16;94243.16;5019758;28;20198;-63
2021/12/28 11:36:09;;;;;;;15.18;13.98;;;;;;;13.54;60.75;94244.75;5036712;28;20261;-63
2021/12/28 11:38:37;;;;;;;15.43;14.13;;;;;;;13.56;59.82;94231.31;5036925;28;20277;-64
2021/12/28 11:41:07;;;;;;;15.07;13.77;;;;;;;13.65;60.07;94238.06;5018866;28;20194;-64
2021/12/28 11:43:34;;;;;;;14.93;13.57;;;;;;;13.92;59.02;94235.72;5018151;28;20696;-63
2021/12/28 11:46:01;;;;;;;14.80;13.40;;;;;;;13.86;58.42;94233.72;5036604;28;20197;-63
2021/12/28 11:48:28;;;;;;;14.45;13.25;;;;;;;13.73;58.64;94220.25;5019516;28;20203;-63
2021/12/28 11:50:55;;;;;;;14.43;13.30;;;;;;;13.70;58.60;94223.81;5019137;28;20198;-63
2021/12/28 11:53:22;;;;;;;14.40;13.10;;;;;;;13.66;59.41;94225.78;5018771;28;20202;-63
2021/12/28 11:55:49;;;;;;;14.27;13.02;;;;;;;13.68;59.43;94217.06;5036050;28;20178;-63
2021/12/28 11:58:18;;;;;;;15.10;13.82;;;;;;;13.88;58.84;94217.50;5036032;28;20595;-63
2021/12/28 12:00:45;;;;;;;15.02;13.57;;;;;;;14.06;58.07;94214.75;5035965;28;20187;-63
2021/12/28 12:03:33;;;;;;;13.70;12.55;;;;;;;14.10;58.46;94210.78;5036233;28;20206;-64
2021/12/28 12:06:00;;;;;;;13.15;11.95;;;;;;;14.12;57.70;94208.38;5018784;28;20202;-64
2021/12/28 12:08:27;;;;;;;14.27;12.98;;;;;;;14.00;57.54;94211.56;5035904;28;20202;-67
2021/12/28 12:11:02;;;;;;;13.55;12.35;;;;;;;14.00;58.59;94208.78;5035939;28;20194;-65
2021/12/28 12:13:30;;;;;;;13.75;12.48;;;;;;;14.15;57.82;94204.81;5036448;28;20186;-64
2021/12/28 12:15:59;;;;;;;14.00;12.70;;;;;;;14.16;57.49;94206.44;5035815;28;20242;-63
2021/12/28 12:18:30;;;;;;;12.75;11.65;;;;;;;14.01;57.62;94209.59;5018549;28;20198;-67
2021/12/28 12:21:02;;;;;;;13.07;11.93;;;;;;;13.85;58.12;94201.66;5036354;28;20262;-63
2021/12/28 12:23:31;;;;;;;12.52;11.43;;;;;;;13.68;58.34;94203.22;5018736;28;20218;-62
2021/12/28 12:26:06;;;;;;;13.73;12.60;;;;;;;13.53;58.60;94199.63;5018699;28;20194;-63
2021/12/28 12:29:00;;;;;;;13.95;12.70;;;;;;;13.39;59.65;94199.59;5035842;28;20194;-62
2021/12/28 12:31:36;;;;;;;13.80;12.50;;;;;;;13.26;59.91;94190.09;4999621;28;20210;-64
2021/12/28 12:34:06;;;;;;;13.77;12.57;;;;;;;13.12;59.65;94199.91;5035754;28;20190;-64
2021/12/28 12:36:41;;;;;;;14.27;12.93;;;;;;;13.08;60.04;94201.84;5018760;28;20198;-63
2021/12/28 12:39:09;;;;;;;14.50;13.30;;;;;;;13.05;60.55;94194.31;5018276;28;20201;-63
2021/12/28 12:41:45;;;;;;;14.18;12.77;;;;;;;12.92;60.55;94199.41;5018180;28;20202;-65
2021/12/28 12:44:17;;;;;;;15.18;13.77;;;;;;;12.87;60.99;94196.22;5018360;28;20206;-62
2021/12/28 12:46:46;;;;;;;15.50;14.20;;;;;;;12.83;61.58;94195.44;5018280;28;20633;-62
2021/12/28 12:49:37;;;;;;;15.07;13.70;;;;;;;12.70;61.52;94206.81;5018338;28;20198;-62
2021/12/28 12:52:13;;;;;;;14.10;12.80;;;;;;;12.63;61.76;94195.72;5015955;28;20210;-63
2021/12/28 12:54:45;;;;;;;13.45;12.25;;;;;;;12.59;61.63;94207.94;5018487;28;20208;-61
2021/12/28 12:57:20;;;;;;;13.80;12.50;;;;;;;12.53;62.04;94207.53;5018270;28;20252;-63
2021/12/28 12:59:52;;;;;;;13.80;12.45;;;;;;;12.49;61.89;94201.16;5035575;28;20201;-65
2021/12/28 13:02:25;;;;;;;12.75;11.65;;;;;;;12.48;62.01;94207.88;5034999;28;20240;-63
2021/12/28 13:04:55;;;;;;;12.63;11.43;;;;;;;12.45;62.09;94206.66;5035431;28;20189;-64
2021/12/28 13:07:25;;;;;;;13.65;12.40;;;;;;;12.40;62.15;94209.03;5035134;28;20186;-63
2021/12/28 13:10:13;;;;;;;12.77;11.68;;;;;;;12.38;62.14;94205.84;5018272;28;20191;-63
2021/12/28 13:12:41;;;;;;;13.90;12.60;;;;;;;12.36;62.43;94203.47;5035465;28;20186;-63
2021/12/28 13:15:11;;;;;;;12.65;11.40;;;;;;;12.33;62.41;94207.00;5018064;28;20292;-64
2021/12/28 13:17:40;;;;;;;12.73;11.73;;;;;;;12.33;62.40;94204.22;5034889;28;20206;-64
2021/12/28 13:20:11;;;;;;;13.93;11.75;;;;;;;12.39;62.58;94196.38;5034961;28;20191;-64
2021/12/28 13:22:40;;;;;;;12.38;11.35;;;;;;;12.37;62.25;94191.22;5017916;28;20228;-65
2021/12/28 13:25:09;;;;;;;12.98;11.77;;;;;;;12.37;62.66;94195.97;5034840;28;20202;-65
2021/12/28 13:27:37;;;;;;;13.10;11.60;;;;;;;12.37;62.67;94201.50;5035531;28;20187;-64
2021/12/28 13:30:06;;;;;;;12.07;10.88;;;;;;;12.36;62.54;94199.91;5017907;28;20610;-64
2021/12/28 13:32:36;;;;;;;11.18;10.07;;;;;;;12.34;62.55;94193.97;5017736;28;20701;-63
2021/12/28 13:35:13;;;;;;;12.35;11.07;;;;;;;12.33;63.07;94200.69;5035209;28;20195;-64
2021/12/28 13:37:42;;;;;;;11.43;10.30;;;;;;;12.31;62.76;94203.84;5034989;28;20224;-62
2021/12/28 13:40:13;;;;;;;12.13;10.70;;;;;;;12.27;62.71;94197.47;5034863;28;20183;-63
2021/12/28 13:42:42;;;;;;;12.05;10.85;;;;;;;12.25;63.12;94205.38;5017802;28;20222;-62
2021/12/28 13:45:11;;;;;;;13.52;12.20;;;;;;;12.24;63.21;94195.50;5035069;28;20191;-62
2021/12/28 13:47:41;;;;;;;13.77;12.35;;;;;;;12.21;62.91;94191.53;5017922;28;20206;-62
2021/12/28 13:50:12;;;;;;;13.40;11.98;;;;;;;12.18;62.96;94197.81;5017797;28;20202;-62
2021/12/28 13:52:48;;;;;;;13.95;11.48;;;;;;;12.17;62.91;94200.97;5035082;28;20186;-62
2021/12/28 13:55:17;;;;;;;13.32;11.93;;;;;;;12.13;63.09;94206.47;5018146;28;20198;-62
2021/12/28 13:57:44;;;;;;;13.85;12.35;;;;;;;12.12;63.32;94210.41;5034482;28;20604;-63
2021/12/28 14:00:14;;;;;;;13.07;11.68;;;;;;;12.09;63.05;94211.19;5034625;28;20195;-63
2021/12/28 14:02:52;;;;;;;12.70;11.40;;;;;;;12.09;63.64;94210.38;5034613;28;20215;-63
2021/12/28 14:05:20;;;;;;;12.02;10.77;;;;;;;12.08;63.62;94217.88;5036117;28;20198;-63
2021/12/28 14:07:47;;;;;;;14.23;11.90;;;;;;;12.08;63.65;94225.38;5036650;28;20200;-61
2021/12/28 14:10:14;;;;;;;11.90;10.75;;;;;;;12.07;63.37;94209.97;5020952;28;20202;-63
2021/12/28 14:12:40;;;;;;;11.90;10.65;;;;;;;12.05;63.66;94210.34;5038177;28;20189;-65
2021/12/28 14:15:13;;;;;;;10.85;9.75;;;;;;;12.04;63.78;94225.34;5038100;28;20664;-63
2021/12/28 14:17:41;;;;;;;10.00;9.00;;;;;;;12.02;63.37;94211.91;5021337;28;20237;-62
2021/12/28 14:20:09;;;;;;;10.50;9.48;;;;;;;12.00;63.66;94221.75;5038150;28;20187;-62
2021/12/28 14:22:36;;;;;;;9.75;8.65;;;;;;;11.96;63.39;94218.19;5038277;28;20198;-61
2021/12/28 14:25:06;;;;;;;10.02;9.05;;;;;;;11.94;63.60;94220.53;5037914;28;20193;-62
2021/12/28 14:27:36;;;;;;;9.60;8.57;;;;;;;11.90;63.47;94225.22;5037723;28;20222;-63
2021/12/28 14:30:07;;;;;;;9.45;8.35;;;;;;;11.89;63.36;94221.66;5038346;28;20213;-63
2021/12/28 14:32:36;;;;;;;10.88;8.25;;;;;;;11.86;63.54;94225.19;5020635;28;20199;-62
2021/12/28 14:35:06;;;;;;;10.15;8.77;;;;;;;11.81;63.80;94229.06;5037995;28;20197;-62
2021/12/28 14:37:37;;;;;;;10.07;9.00;;;;;;;11.78;63.60;94229.84;5020712;28;20203;-63
2021/12/28 14:40:17;;;;;;;9.88;8.98;;;;;;;11.75;63.94;94225.06;5037941;28;20190;-64
2021/12/28 14:42:45;;;;;;;10.20;8.88;;;;;;;11.73;64.13;94223.88;5020598;28;20218;-63
2021/12/28 14:45:14;;;;;;;9.70;8.73;;;;;;;11.71;64.33;94231.75;5020755;28;20202;-62
2021/12/28 14:47:43;;;;;;;10.13;9.23;;;;;;;11.68;64.24;94235.25;5037949;28;20197;-62
2021/12/28 14:50:15;;;;;;;11.73;9.65;;;;;;;11.65;64.69;94236.00;5020271;28;20198;-62
2021/12/28 14:52:44;;;;;;;10.57;9.18;;;;;;;11.60;64.68;94234.41;5037911;28;20246;-61
2021/12/28 14:55:14;;;;;;;10.48;9.40;;;;;;;11.54;65.10;94242.22;5037677;28;20198;-62
2021/12/28 14:57:42;;;;;;;12.40;11.07;;;;;;;11.49;65.10;94237.06;5037734;28;20197;-62
2021/12/28 15:00:13;;;;;;;11.80;10.70;;;;;;;11.45;65.21;94232.66;5020140;28;20225;-64
2021/12/28 15:02:48;;;;;;;13.50;11.60;;;;;;;11.40;65.00;94228.28;5037451;28;20211;-62
2021/12/28 15:05:17;;;;;;;12.80;10.57;;;;;;;11.36;64.91;94235.72;5019975;28;20193;-62
2021/12/28 15:07:44;;;;;;;11.38;9.93;;;;;;;11.35;64.93;94236.09;5037044;28;20277;-62
2021/12/28 15:10:11;;;;;;;12.00;10.13;;;;;;;11.29;65.02;94238.41;5037310;28;20187;-62
2021/12/28 15:12:43;;;;;;;12.98;11.68;;;;;;;11.24;65.19;94236.78;5037569;28;20225;-64
2021/12/28 15:15:13;;;;;;;13.32;12.02;;;;;;;11.16;65.79;94246.16;5037116;28;20264;-65
2021/12/28 15:17:40;;;;;;;12.93;11.40;;;;;;;11.12;66.28;94247.28;5019967;28;20198;-63
2021/12/28 15:20:09;;;;;;;12.73;10.90;;;;;;;11.12;66.31;94239.81;5018952;28;20198;-62
2021/12/28 15:22:38;;;;;;;12.40;11.15;;;;;;;11.07;66.36;94249.22;5037252;28;20207;-65
2021/12/28 15:25:05;;;;;;;11.93;10.63;;;;;;;11.01;66.94;94238.88;5019937;28;20190;-65
2021/12/28 15:27:32;;;;;;;11.88;10.75;;;;;;;10.96;66.81;94240.00;5019742;28;20194;-64
2021/12/28 15:30:03;;;;;;;12.50;11.30;;;;;;;10.90;66.76;94238.75;5037025;28;20181;-64
2021/12/28 15:32:30;;;;;;;13.40;12.00;;;;;;;10.84;66.99;94241.03;5037311;28;20274;-67
2021/12/28 15:34:58;;;;;;;13.35;12.05;;;;;;;10.78;66.81;94238.97;5019700;28;20204;-63
2021/12/28 15:37:25;;;;;;;13.93;11.80;;;;;;;10.72;66.82;94233.00;5019721;28;20205;-63
2021/12/28 15:39:53;;;;;;;13.50;12.07;;;;;;;10.67;67.08;94235.28;5036731;28;20197;-64
2021/12/28 15:42:19;;;;;;;13.68;12.18;;;;;;;10.63;67.38;94235.22;5019409;28;20203;-62
2021/12/28 15:44:46;;;;;;;14.60;13.00;;;;;;;10.54;67.93;94231.97;5036903;28;20190;-61
2021/12/28 15:47:13;;;;;;;17.00;13.23;;;;;;;10.49;67.99;94235.81;5020027;28;20218;-62
2021/12/28 15:49:40;;;;;;;15.05;13.50;;;;;;;10.46;68.15;94238.56;5036768;28;20198;-64
2021/12/28 15:52:07;;;;;;;15.50;14.00;;;;;;;10.40;68.02;94235.31;5019005;28;20205;-62
2021/12/28 15:54:33;;;;;;;14.75;13.30;;;;;;;10.35;67.79;94236.44;5036576;28;20193;-62
2021/12/28 15:57:01;;;;;;;14.20;12.73;;;;;;;10.31;67.91;94238.34;5019589;28;20209;-62
2021/12/28 15:59:28;;;;;;;14.48;13.18;;;;;;;10.26;68.29;94243.38;5036085;28;20190;-62
2021/12/28 16:01:55;;;;;;;15.75;14.07;;;;;;;10.22;68.12;94246.03;5036507;28;20197;-62
2021/12/28 16:04:22;;;;;;;14.88;13.38;;;;;;;10.16;69.00;94236.50;5018926;28;20210;-64
2021/12/28 16:06:49;;;;;;;17.40;15.75;;;;;;;10.12;68.71;94249.41;5036398;28;20209;-63
2021/12/28 16:09:16;;;;;;;15.68;14.20;;;;;;;10.06;68.75;94248.97;5019121;28;20217;-64
2021/12/28 16:11:42;;;;;;;16.58;15.05;;;;;;;10.02;69.40;94244.53;5036187;28;20193;-63
2021/12/28 16:14:12;;;;;;;17.05;15.38;;;;;;;9.95;69.36;94250.75;5036139;28;20222;-67
2021/12/28 16:16:39;;;;;;;16.52;15.02;;;;;;;9.93;69.29;94253.06;5035892;28;20242;-64
2021/12/28 16:19:06;;;;;;;16.35;14.75;;;;;;;9.92;69.78;94254.25;5036275;28;20183;-65
2021/12/28 16:21:32;;;;;;;16.98;15.48;;;;;;;9.92;69.69;94250.69;5036288;28;20201;-65
2021/12/28 16:23:59;;;;;;;17.50;15.88;;;;;;;9.88;69.64;94256.94;5018396;28;20232;-62
2021/12/28 16:26:26;;;;;;;20.73;18.83;;;;;;;9.83;69.06;94251.72;5018803;28;20628;-63
2021/12/28 16:28:55;;;;;;;22.67;20.58;;;;;;;9.76;69.67;94245.28;5036040;28;20190;-64
2021/12/28 16:31:27;;;;;;;18.83;17.08;;;;;;;9.69;69.45;94248.72;5035836;28;20195;-63
2021/12/28 16:33:54;;;;;;;24.70;22.45;;;;;;;9.61;69.47;94245.03;5018723;28;20197;-64
2021/12/28 16:36:22;;;;;;;28.48;25.88;;;;;;;9.56;69.33;94239.06;5035874;28;20183;-63
2021/12/28 16:38:51;;;;;;;29.13;26.52;;;;;;;9.51;69.75;94244.84;5018522;28;20202;-63
2021/12/28 16:41:19;;;;;;;33.60;30.25;;;;;;;9.46;69.98;94239.66;5035540;28;20218;-68
2021/12/28 16:43:47;;;;;;;30.33;27.40;;;;;;;9.40;69.56;94248.22;5036029;28;20206;-64
2021/12/28 16:46:14;;;;;;;35.97;32.40;;;;;;;9.33;69.69;94253.59;5018183;28;20208;-64
2021/12/28 16:48:42;;;;;;;36.20;32.70;;;;;;;9.25;69.89;94249.09;5035725;28;20194;-65
2021/12/28 16:51:09;;;;;;;37.00;33.33;;;;;;;9.24;69.79;94252.22;5035718;28;20182;-64
2021/12/28 16:53:36;;;;;;;43.28;38.97;;;;;;;9.21;70.16;94255.72;5035529;28;20625;-65
2021/12/28 16:56:03;;;;;;;48.80;43.78;;;;;;;9.16;69.67;94254.84;5035822;28;20182;-65
2021/12/28 16:58:30;;;;;;;47.90;43.20;;;;;;;9.11;69.87;94257.09;5035568;28;20194;-65
2021/12/28 17:00:58;;;;;;;44.45;40.05;;;;;;;9.07;69.89;94253.47;5019623;28;20194;-66
2021/12/28 17:03:26;;;;;;;42.97;38.58;;;;;;;9.05;70.19;94253.84;5035381;28;20225;-65
2021/12/28 17:05:54;;;;;;;38.45;34.38;;;;;;;9.06;70.45;94249.13;5035089;28;20193;-64
2021/12/28 17:08:21;;;;;;;36.78;32.83;;;;;;;9.09;70.14;94259.41;5035259;28;20197;-65
2021/12/28 17:10:51;;;;;;;37.45;33.50;;;;;;;9.07;70.56;94259.75;5034912;28;20508;-64
2021/12/28 17:13:19;;;;;;;38.83;34.72;;;;;;;9.06;70.25;94260.13;5017610;28;20689;-64
2021/12/28 17:15:46;;;;;;;41.13;36.92;;;;;;;9.01;70.21;94263.97;5035720;28;20226;-66
2021/12/28 17:18:13;;;;;;;42.03;38.03;;;;;;;8.92;69.98;94261.44;5035146;28;20190;-65
2021/12/28 17:20:40;;;;;;;45.17;40.47;;;;;;;8.87;70.25;94258.97;5017792;28;20213;-63
2021/12/28 17:23:08;;;;;;;47.22;42.40;;;;;;;8.84;70.02;94256.94;5017447;28;20201;-64
2021/12/28 17:25:36;;;;;;;50.22;45.13;;;;;;;8.78;70.10;94258.38;5034928;28;20186;-67